Time;durP1;ratioP1;P1;durP2;ratioP2;P2;SDS_P1;SDS_P2;PMS_P1;PMS_P2;Temp;Humidity;BMP_temperature;BMP_pressure;BME280_temperature;BME280_humidity;BME280_pressure;Samples;Min_cycle;Max_cycle;Signal;HPM_P1;HPM_P2
2022/05/30 00:01:15;;;;;;;3.47;1.50;;;8.10;91.50;;;;;;5112279;28;20127;-52
2022/05/30 00:03:41;;;;;;;4.63;1.60;;;8.00;91.60;;;;;;5112472;28;20043;-59
2022/05/30 00:06:09;;;;;;;2.35;1.55;;;8.00;91.60;;;;;;5101582;28;20024;-58
2022/05/30 00:08:35;;;;;;;5.15;1.70;;;8.00;91.70;;;;;;5112298;28;20555;-61
2022/05/30 00:11:03;;;;;;;4.20;1.70;;;8.00;91.70;;;;;;5112518;28;20110;-54
2022/05/30 00:13:28;;;;;;;2.42;1.60;;;8.00;91.80;;;;;;5112139;28;20046;-55
2022/05/30 00:15:54;;;;;;;2.95;1.55;;;8.00;91.80;;;;;;5112306;28;20031;-62
2022/05/30 00:18:20;;;;;;;3.55;1.70;;;8.00;91.80;;;;;;5112009;28;20023;-52
2022/05/30 00:20:46;;;;;;;4.28;1.65;;;8.00;91.80;;;;;;5112126;28;20388;-43
2022/05/30 00:23:12;;;;;;;4.13;1.73;;;8.00;91.80;;;;;;5112009;28;20030;-50
2022/05/30 00:25:40;;;;;;;4.50;1.95;;;7.90;91.80;;;;;;5112089;28;20387;-52
2022/05/30 00:28:06;;;;;;;3.17;1.85;;;7.90;91.70;;;;;;5111787;28;20391;-60
2022/05/30 00:30:32;;;;;;;5.85;1.70;;;7.90;91.80;;;;;;5112057;28;20035;-57
2022/05/30 00:32:57;;;;;;;3.88;1.77;;;7.90;91.70;;;;;;5111823;28;20035;-60
2022/05/30 00:35:23;;;;;;;3.67;1.95;;;7.90;91.70;;;;;;5111324;28;20034;-57
2022/05/30 00:37:49;;;;;;;3.33;1.70;;;7.80;91.50;;;;;;5111162;28;20025;-60
2022/05/30 00:40:14;;;;;;;6.50;1.80;;;7.80;91.50;;;;;;5112014;28;20027;-46
2022/05/30 00:42:40;;;;;;;2.45;1.67;;;7.70;91.10;;;;;;5111754;28;20015;-46
2022/05/30 00:45:07;;;;;;;2.30;1.42;;;7.50;91.40;;;;;;5111756;28;20073;-52
2022/05/30 00:47:32;;;;;;;3.95;1.65;;;7.50;91.50;;;;;;5111802;28;20457;-61
2022/05/30 00:49:59;;;;;;;3.30;1.80;;;7.40;91.60;;;;;;5111514;28;20111;-52
2022/05/30 00:52:35;;;;;;;3.95;1.65;;;7.40;92.10;;;;;;5111418;28;20093;-62
2022/05/30 00:55:18;;;;;;;3.22;1.80;;;7.40;91.90;;;;;;5111616;28;20571;-58
2022/05/30 00:57:45;;;;;;;4.05;2.05;;;7.40;91.90;;;;;;5097121;28;20470;-62
2022/05/30 01:00:22;;;;;;;3.05;1.80;;;7.40;91.90;;;;;;5093482;28;20533;-58
2022/05/30 01:06:30;;;;;;;4.18;1.77;;;7.30;91.80;;;;;;5111347;28;20036;-58
2022/05/30 01:08:28;;;;;;;5.57;2.40;;;7.30;92.10;;;;;;5097866;28;20050;-55
2022/05/30 01:10:54;;;;;;;4.22;2.33;;;7.30;91.90;;;;;;5093517;28;20414;-57
2022/05/30 01:13:20;;;;;;;4.45;2.30;;;7.30;91.90;;;;;;5111372;28;20483;-49
2022/05/30 01:15:46;;;;;;;5.30;2.60;;;7.30;91.80;;;;;;5111486;28;20020;-60
2022/05/30 01:18:27;;;;;;;4.20;2.30;;;7.30;91.90;;;;;;5111297;28;20024;-60
2022/05/30 01:20:58;;;;;;;3.92;2.40;;;7.20;92.10;;;;;;5111534;28;20100;-61
2022/05/30 01:23:55;;;;;;;5.50;2.30;;;7.20;92.20;;;;;;5111217;28;20016;-59
2022/05/30 01:26:30;;;;;;;4.78;1.90;;;7.20;92.20;;;;;;5111317;28;20093;-58
2022/05/30 01:29:09;;;;;;;3.97;1.70;;;7.20;92.20;;;;;;5098268;28;20107;-61
2022/05/30 01:31:34;;;;;;;3.55;1.70;;;7.20;92.20;;;;;;5111096;28;20093;-59
2022/05/30 01:34:00;;;;;;;4.07;1.77;;;7.20;92.20;;;;;;5111361;28;20476;-60
2022/05/30 01:36:29;;;;;;;3.35;1.88;;;7.10;92.30;;;;;;5111236;28;20019;-64
2022/05/30 01:38:55;;;;;;;4.10;1.67;;;7.10;92.30;;;;;;5111137;28;20023;-54
2022/05/30 01:41:21;;;;;;;3.40;1.60;;;7.10;92.30;;;;;;5111464;28;20082;-61
2022/05/30 01:43:46;;;;;;;4.25;1.77;;;7.10;92.30;;;;;;5111152;28;20454;-60
2022/05/30 01:46:18;;;;;;;3.53;1.60;;;7.10;92.40;;;;;;5111171;28;20020;-59
2022/05/30 01:48:47;;;;;;;3.63;1.70;;;7.20;92.40;;;;;;5113957;28;20541;-59
2022/05/30 01:51:18;;;;;;;4.25;1.80;;;7.10;92.10;;;;;;5115189;28;20028;-54
2022/05/30 01:53:45;;;;;;;5.50;2.53;;;7.10;92.20;;;;;;5114792;28;20040;-58
2022/05/30 01:56:10;;;;;;;4.10;1.70;;;7.10;92.10;;;;;;5111238;28;20507;-57
2022/05/30 01:58:36;;;;;;;2.83;1.50;;;7.00;92.20;;;;;;5104357;28;20063;-54
2022/05/30 02:01:13;;;;;;;4.20;1.88;;;7.00;92.40;;;;;;5114826;28;20020;-60
2022/05/30 02:03:39;;;;;;;3.08;1.50;;;7.00;92.30;;;;;;5114906;28;20019;-62
2022/05/30 02:06:05;;;;;;;3.70;1.80;;;7.00;92.20;;;;;;5103632;28;20508;-57
2022/05/30 02:08:30;;;;;;;3.88;1.85;;;7.00;92.20;;;;;;5114857;28;20095;-61
2022/05/30 02:10:56;;;;;;;3.78;1.77;;;7.00;92.40;;;;;;5114696;28;20031;-51
2022/05/30 02:13:21;;;;;;;2.70;1.52;;;7.00;92.20;;;;;;5096330;28;20125;-58
2022/05/30 02:18:31;;;;;;;4.13;1.80;;;6.90;92.20;;;;;;5114770;28;20048;-59
2022/05/30 02:20:57;;;;;;;3.65;1.83;;;6.80;92.40;;;;;;5114422;28;20027;-55
2022/05/30 02:23:22;;;;;;;2.63;1.40;;;6.80;92.70;;;;;;5114552;28;20019;-54
2022/05/30 02:25:48;;;;;;;4.18;1.98;;;6.80;93.10;;;;;;5112130;28;20365;-56
2022/05/30 02:28:14;;;;;;;3.08;1.60;;;6.90;93.30;;;;;;5108566;28;20393;-47
2022/05/30 02:30:40;;;;;;;2.35;1.35;;;6.90;93.30;;;;;;5114031;28;20028;-60
2022/05/30 02:38:34;;;;;;;4.88;1.88;;;7.00;93.60;;;;;;5111567;28;20026;-60
2022/05/30 02:41:00;;;;;;;4.28;1.95;;;7.10;93.60;;;;;;5114099;28;20023;-62
2022/05/30 02:43:26;;;;;;;4.57;2.05;;;7.10;93.20;;;;;;5112573;28;20487;-60
2022/05/30 02:45:51;;;;;;;5.22;2.03;;;7.10;92.70;;;;;;5100571;28;20051;-61
2022/05/30 02:48:17;;;;;;;3.60;1.98;;;7.10;93.00;;;;;;5113644;28;20024;-58
2022/05/30 02:50:44;;;;;;;3.50;1.92;;;7.10;92.80;;;;;;5113530;28;20019;-57
2022/05/30 02:53:11;;;;;;;4.75;1.98;;;7.10;92.50;;;;;;5113526;28;20043;-60
2022/05/30 02:55:36;;;;;;;3.40;1.65;;;6.90;92.40;;;;;;5113450;28;20016;-49
2022/05/30 02:58:03;;;;;;;4.03;1.58;;;6.90;93.20;;;;;;5113666;28;20061;-61
2022/05/30 03:00:29;;;;;;;3.60;1.92;;;6.90;93.20;;;;;;5111046;28;20451;-60
2022/05/30 03:02:55;;;;;;;4.03;1.70;;;6.90;93.00;;;;;;5100388;28;20051;-59
2022/05/30 03:05:21;;;;;;;2.72;1.70;;;6.90;93.00;;;;;;5107607;28;20381;-58
2022/05/30 03:07:46;;;;;;;4.70;2.00;;;6.90;92.60;;;;;;5112324;28;20054;-60
2022/05/30 03:10:12;;;;;;;4.82;1.83;;;6.90;92.40;;;;;;5113179;28;20071;-55
2022/05/30 03:12:38;;;;;;;3.15;1.77;;;6.90;92.40;;;;;;5112958;28;20545;-60
2022/05/30 03:15:04;;;;;;;3.58;1.80;;;6.90;92.50;;;;;;5113412;28;20091;-58
2022/05/30 03:17:30;;;;;;;4.35;2.05;;;6.90;92.40;;;;;;5112986;28;20016;-62
2022/05/30 03:19:56;;;;;;;2.85;1.50;;;6.90;92.30;;;;;;5112997;28;20385;-45
2022/05/30 03:22:22;;;;;;;3.80;2.10;;;6.90;92.50;;;;;;5112947;28;20020;-59
2022/05/30 03:24:47;;;;;;;2.50;1.60;;;6.80;92.30;;;;;;5112859;28;20015;-53
2022/05/30 03:27:13;;;;;;;3.42;1.50;;;6.80;92.30;;;;;;5103992;28;20035;-54
2022/05/30 03:29:39;;;;;;;2.92;1.55;;;6.70;92.40;;;;;;5106608;28;20146;-50
2022/05/30 03:32:05;;;;;;;3.30;1.50;;;6.60;92.50;;;;;;5092448;28;20095;-62
2022/05/30 03:34:30;;;;;;;2.67;1.58;;;6.70;92.60;;;;;;5092071;28;20039;-49
2022/05/30 03:36:56;;;;;;;2.92;1.70;;;6.60;92.50;;;;;;5098463;28;20019;-45
2022/05/30 03:39:22;;;;;;;4.30;1.90;;;6.60;92.70;;;;;;5112824;28;20112;-59
2022/05/30 03:41:47;;;;;;;3.90;1.70;;;6.50;92.70;;;;;;5112404;28;20024;-60
2022/05/30 03:44:13;;;;;;;4.35;1.95;;;6.40;92.70;;;;;;5112456;28;20016;-61
2022/05/30 03:46:39;;;;;;;4.32;1.80;;;6.40;92.80;;;;;;5112379;28;20110;-51
2022/05/30 03:49:04;;;;;;;2.83;1.55;;;6.30;92.80;;;;;;5112685;28;20072;-59
2022/05/30 03:51:30;;;;;;;2.85;1.60;;;6.30;93.00;;;;;;5112731;28;20111;-59
2022/05/30 03:53:56;;;;;;;3.75;1.70;;;6.30;93.10;;;;;;5112139;28;20044;-59
2022/05/30 03:56:22;;;;;;;3.95;1.77;;;6.30;93.00;;;;;;5112283;28;20097;-52
2022/05/30 03:58:48;;;;;;;3.10;1.63;;;6.30;93.00;;;;;;5112221;28;20020;-62
2022/05/30 04:01:13;;;;;;;4.53;1.92;;;6.20;93.10;;;;;;5112422;28;20361;-62
2022/05/30 04:03:41;;;;;;;2.83;1.75;;;6.30;93.20;;;;;;5112239;28;20098;-57
2022/05/30 04:06:09;;;;;;;3.67;1.65;;;6.30;93.30;;;;;;5108374;28;20020;-60
2022/05/30 04:08:35;;;;;;;3.33;1.70;;;6.30;93.10;;;;;;5112207;28;20095;-58
2022/05/30 04:11:01;;;;;;;2.95;1.50;;;6.30;92.90;;;;;;5111853;28;20031;-56
2022/05/30 04:13:27;;;;;;;4.28;1.80;;;6.30;92.90;;;;;;5112146;28;20031;-62
2022/05/30 04:15:53;;;;;;;3.70;1.55;;;6.30;93.00;;;;;;5112277;28;20022;-52
2022/05/30 04:18:18;;;;;;;2.78;1.60;;;6.30;93.10;;;;;;5111949;28;20027;-59
2022/05/30 04:20:46;;;;;;;3.25;1.60;;;6.40;92.90;;;;;;5111893;28;20028;-54
2022/05/30 04:23:15;;;;;;;2.88;1.70;;;6.40;92.70;;;;;;5111860;28;20051;-55
2022/05/30 04:25:41;;;;;;;3.72;1.83;;;6.40;92.60;;;;;;5111809;28;20116;-59
2022/05/30 04:28:06;;;;;;;4.10;1.85;;;6.40;92.60;;;;;;5093397;28;20044;-58
2022/05/30 04:30:32;;;;;;;4.20;2.00;;;6.40;92.90;;;;;;5111944;28;20031;-47
2022/05/30 04:32:58;;;;;;;3.35;1.88;;;6.40;92.90;;;;;;5111604;28;20026;-60
2022/05/30 04:35:23;;;;;;;5.07;1.70;;;6.50;92.90;;;;;;5104142;28;20028;-58
2022/05/30 04:37:50;;;;;;;4.88;1.75;;;6.40;92.50;;;;;;5104861;28;20475;-62
2022/05/30 04:40:18;;;;;;;3.95;1.65;;;6.50;92.90;;;;;;5111478;28;20556;-56
2022/05/30 04:42:45;;;;;;;3.42;1.77;;;6.60;93.00;;;;;;5111601;28;20024;-57
2022/05/30 04:45:11;;;;;;;2.72;1.52;;;6.70;93.00;;;;;;5111431;28;20023;-61
2022/05/30 04:47:39;;;;;;;5.47;1.70;;;6.70;92.90;;;;;;5111409;28;20027;-59
2022/05/30 04:50:07;;;;;;;2.70;1.58;;;6.60;92.80;;;;;;5111352;28;20506;-55
2022/05/30 04:52:33;;;;;;;3.10;1.83;;;6.70;92.60;;;;;;5111508;28;20035;-58
2022/05/30 04:54:59;;;;;;;4.30;1.70;;;6.60;92.70;;;;;;5111146;28;20391;-57
2022/05/30 04:57:25;;;;;;;2.80;1.60;;;6.70;92.90;;;;;;5111474;28;20444;-61
2022/05/30 04:59:51;;;;;;;5.00;1.90;;;6.70;92.90;;;;;;5111347;28;20019;-55
2022/05/30 05:02:17;;;;;;;3.35;1.90;;;6.70;93.10;;;;;;5110938;28;20035;-57
2022/05/30 05:04:43;;;;;;;3.80;1.73;;;6.80;93.30;;;;;;5092387;28;20020;-44
2022/05/30 05:07:09;;;;;;;2.28;1.55;;;6.90;93.30;;;;;;5107912;28;20054;-40
2022/05/30 05:09:46;;;;;;;4.88;1.70;;;7.00;93.30;;;;;;5111395;28;20432;-50
2022/05/30 05:12:12;;;;;;;2.85;1.70;;;7.20;93.10;;;;;;5111056;28;20024;-47
2022/05/30 05:14:38;;;;;;;3.25;1.50;;;7.40;93.50;;;;;;5111061;28;20047;-43
2022/05/30 05:17:06;;;;;;;4.68;1.88;;;7.60;93.20;;;;;;5110873;28;20439;-46
2022/05/30 05:19:32;;;;;;;2.90;1.98;;;7.80;93.00;;;;;;5111168;28;20024;-42
2022/05/30 05:21:58;;;;;;;3.63;2.08;;;7.90;92.90;;;;;;5110978;28;20046;-47
2022/05/30 05:24:25;;;;;;;3.65;2.20;;;8.00;92.90;;;;;;5115272;28;20016;-40
2022/05/30 05:26:51;;;;;;;4.40;1.85;;;8.20;92.50;;;;;;5115521;28;20051;-64
2022/05/30 05:29:17;;;;;;;4.55;2.00;;;8.30;92.00;;;;;;5115323;28;20023;-57
2022/05/30 05:31:43;;;;;;;7.25;1.88;;;8.40;91.70;;;;;;5115146;28;20031;-60
2022/05/30 05:34:11;;;;;;;3.40;1.75;;;8.50;91.80;;;;;;5114621;28;20507;-61
2022/05/30 05:36:41;;;;;;;4.32;1.83;;;8.60;91.20;;;;;;5100558;28;20024;-56
2022/05/30 05:39:08;;;;;;;4.50;1.85;;;8.70;91.40;;;;;;5115100;28;20084;-55
2022/05/30 05:41:34;;;;;;;5.63;2.30;;;8.90;89.90;;;;;;5114939;28;20020;-59
2022/05/30 05:43:59;;;;;;;4.72;1.67;;;9.20;88.40;;;;;;5114955;28;20369;-60
2022/05/30 05:46:30;;;;;;;4.60;1.77;;;9.40;88.10;;;;;;5115065;28;20030;-46
2022/05/30 05:48:57;;;;;;;4.50;1.80;;;9.70;87.60;;;;;;5114599;28;20016;-53
2022/05/30 05:51:24;;;;;;;3.83;1.70;;;10.10;84.80;;;;;;5114928;28;20097;-54
2022/05/30 05:53:50;;;;;;;4.97;1.88;;;10.90;86.80;;;;;;5114374;28;20043;-57
2022/05/30 05:56:19;;;;;;;4.78;1.77;;;11.70;84.80;;;;;;5114681;28;20472;-57
2022/05/30 05:58:45;;;;;;;2.95;1.45;;;12.40;79.50;;;;;;5114524;28;20090;-45
2022/05/30 06:01:17;;;;;;;3.90;1.40;;;13.20;78.70;;;;;;5114785;28;20028;-54
2022/05/30 06:03:42;;;;;;;2.35;1.35;;;13.90;74.20;;;;;;5114545;28;20028;-59
2022/05/30 06:06:08;;;;;;;2.42;1.30;;;14.60;74.70;;;;;;5110646;28;20023;-58
2022/05/30 06:08:34;;;;;;;4.03;1.38;;;15.20;70.40;;;;;;5114535;28;20101;-60
2022/05/30 06:11:11;;;;;;;3.25;1.27;;;15.70;70.10;;;;;;5114520;28;20012;-57
2022/05/30 06:13:38;;;;;;;3.03;1.17;;;16.10;67.60;;;;;;5114213;28;20067;-61
2022/05/30 06:16:19;;;;;;;4.50;1.05;;;16.50;64.90;;;;;;5114274;28;20015;-55
2022/05/30 06:18:46;;;;;;;4.55;1.23;;;16.90;64.70;;;;;;5114299;28;20422;-48
2022/05/30 06:21:12;;;;;;;3.00;1.20;;;17.20;63.60;;;;;;5114334;28;20021;-54
2022/05/30 06:23:37;;;;;;;4.00;1.20;;;17.50;65.20;;;;;;5114412;28;20110;-50
2022/05/30 06:26:05;;;;;;;5.68;1.20;;;17.90;64.20;;;;;;5110666;28;20067;-47
2022/05/30 06:28:31;;;;;;;4.38;1.48;;;18.50;61.20;;;;;;5075289;28;20035;-47
2022/05/30 06:30:57;;;;;;;3.58;1.10;;;18.70;60.20;;;;;;5093095;28;20031;-56
2022/05/30 06:33:23;;;;;;;4.47;1.20;;;19.20;59.70;;;;;;5093571;28;20024;-57
2022/05/30 06:35:49;;;;;;;4.35;1.30;;;19.40;58.80;;;;;;5075283;28;20035;-54
2022/05/30 06:38:16;;;;;;;5.30;1.02;;;19.60;58.30;;;;;;5111007;28;20047;-51
2022/05/30 06:40:43;;;;;;;2.53;1.10;;;19.70;59.00;;;;;;5113977;28;20480;-50
2022/05/30 06:43:09;;;;;;;4.05;1.20;;;20.00;57.70;;;;;;5113703;28;20115;-47
2022/05/30 06:45:35;;;;;;;3.65;0.95;;;20.30;55.30;;;;;;5113988;28;20036;-41
2022/05/30 06:48:01;;;;;;;4.97;1.13;;;20.50;52.60;;;;;;5113923;28;20038;-49
2022/05/30 06:50:27;;;;;;;4.97;1.00;;;20.70;54.50;;;;;;5095084;28;20016;-42
2022/05/30 06:52:53;;;;;;;2.75;0.90;;;20.70;52.30;;;;;;5106922;28;20035;-54
2022/05/30 06:55:19;;;;;;;4.43;1.25;;;21.20;50.80;;;;;;5094164;28;20031;-49
2022/05/30 07:00:30;;;;;;;5.07;0.98;;;21.10;50.10;;;;;;5094875;28;20125;-55
2022/05/30 07:02:57;;;;;;;2.80;1.00;;;21.10;51.60;;;;;;5095354;28;20028;-52
2022/05/30 07:05:23;;;;;;;5.03;1.08;;;20.80;51.80;;;;;;5092935;28;20103;-48
2022/05/30 07:07:48;;;;;;;9.93;2.30;;;20.50;53.30;;;;;;5092912;28;20111;-56
2022/05/30 07:10:14;;;;;;;3.72;0.95;;;20.60;53.80;;;;;;5092867;28;20020;-57
2022/05/30 07:12:40;;;;;;;4.05;1.00;;;21.10;54.50;;;;;;5098861;28;20027;-60
2022/05/30 07:15:07;;;;;;;6.95;0.90;;;21.70;52.70;;;;;;5091443;28;20028;-55
2022/05/30 07:17:33;;;;;;;3.90;0.85;;;21.80;48.00;;;;;;5094074;28;20020;-57
2022/05/30 07:19:59;;;;;;;4.93;0.93;;;22.10;51.60;;;;;;5097804;28;20452;-60
2022/05/30 07:22:26;;;;;;;2.80;0.80;;;22.70;51.40;;;;;;5092470;28;20020;-59
2022/05/30 07:24:51;;;;;;;4.15;0.93;;;23.20;45.20;;;;;;5094981;28;20032;-59
2022/05/30 07:27:17;;;;;;;3.45;0.82;;;23.80;45.90;;;;;;5093723;28;20028;-53
2022/05/30 07:29:42;;;;;;;4.07;0.95;;;23.90;39.70;;;;;;5101034;28;20028;-58
2022/05/30 07:32:09;;;;;;;2.08;0.70;;;23.20;41.90;;;;;;5096049;28;20035;-55
2022/05/30 07:34:37;;;;;;;2.00;0.60;;;22.80;44.10;;;;;;5093459;28;20031;-51
2022/05/30 07:37:04;;;;;;;2.65;0.82;;;22.80;42.80;;;;;;5102818;28;20020;-57
2022/05/30 07:39:29;;;;;;;3.25;0.88;;;22.80;44.10;;;;;;5096279;28;20740;-60
2022/05/30 07:41:55;;;;;;;3.08;0.82;;;22.70;45.30;;;;;;5094006;28;20085;-58
2022/05/30 07:44:20;;;;;;;4.57;0.98;;;22.60;46.50;;;;;;5091893;28;20086;-58
2022/05/30 07:46:46;;;;;;;2.30;0.77;;;22.10;44.20;;;;;;5092613;28;20031;-56
2022/05/30 07:49:13;;;;;;;3.13;0.88;;;21.50;44.90;;;;;;5091895;28;20459;-55
2022/05/30 07:51:39;;;;;;;5.63;0.90;;;21.00;48.20;;;;;;5101266;28;20016;-50
2022/05/30 07:54:05;;;;;;;4.65;0.88;;;21.20;48.70;;;;;;5098891;28;20039;-52
2022/05/30 07:56:31;;;;;;;3.80;1.00;;;21.20;46.60;;;;;;5102543;28;20103;-50
2022/05/30 07:58:57;;;;;;;2.17;0.65;;;21.70;49.30;;;;;;5092093;28;20016;-51
2022/05/30 08:01:23;;;;;;;5.03;0.75;;;22.00;45.60;;;;;;5096138;28;20038;-46
2022/05/30 08:03:51;;;;;;;3.67;0.80;;;22.00;44.50;;;;;;5101941;28;20016;-56
2022/05/30 08:06:25;;;;;;;1.92;0.60;;;21.20;46.50;;;;;;5090430;28;20036;-53
2022/05/30 08:08:52;;;;;;;3.20;0.90;;;21.30;49.50;;;;;;5099835;27;20028;-46
2022/05/30 08:11:21;;;;;;;2.95;0.77;;;21.00;46.30;;;;;;5097465;28;20337;-56
2022/05/30 08:13:47;;;;;;;2.55;0.80;;;21.60;47.60;;;;;;5104473;28;20036;-54
2022/05/30 08:16:23;;;;;;;2.78;0.70;;;22.20;46.40;;;;;;5094197;28;20040;-62
2022/05/30 08:18:49;;;;;;;4.13;0.70;;;22.60;45.10;;;;;;5090454;28;20070;-42
2022/05/30 08:21:16;;;;;;;2.80;0.80;;;22.70;45.30;;;;;;5091054;28;20608;-42
2022/05/30 08:23:43;;;;;;;2.47;0.60;;;22.60;45.30;;;;;;5099101;28;20042;-43
2022/05/30 08:26:09;;;;;;;4.32;0.68;;;22.30;44.90;;;;;;5089017;28;20123;-41
2022/05/30 08:28:35;;;;;;;5.97;0.90;;;22.00;43.90;;;;;;5094518;28;20572;-50
2022/05/30 08:31:01;;;;;;;4.00;0.70;;;22.00;45.50;;;;;;5098637;27;20107;-47
2022/05/30 08:33:27;;;;;;;2.63;0.60;;;21.80;45.40;;;;;;5105646;28;20035;-58
2022/05/30 08:35:59;;;;;;;2.55;0.70;;;21.60;46.50;;;;;;5097152;28;20024;-55
2022/05/30 08:38:24;;;;;;;3.30;0.80;;;21.30;47.90;;;;;;5090167;28;20024;-54
2022/05/30 08:43:37;;;;;;;3.08;0.60;;;21.00;51.30;;;;;;5096646;28;20037;-53
2022/05/30 08:46:34;;;;;;;2.47;0.68;;;21.40;47.00;;;;;;5094011;28;20455;-48
2022/05/30 08:49:06;;;;;;;6.13;0.80;;;21.60;47.20;;;;;;5089765;28;20475;-55
2022/05/30 08:52:09;;;;;;;4.50;1.10;;;22.00;48.30;;;;;;5100690;28;20103;-57
2022/05/30 08:54:53;;;;;;;3.42;0.57;;;22.30;46.80;;;;;;5090047;28;20040;-58
2022/05/30 08:58:14;;;;;;;3.92;0.75;;;22.50;44.40;;;;;;5089075;28;20488;-60
2022/05/30 09:00:44;;;;;;;3.47;0.77;;;22.40;46.30;;;;;;5063711;28;20159;-61
2022/05/30 09:03:19;;;;;;;2.78;0.73;;;22.20;43.80;;;;;;5093535;28;20028;-60
2022/05/30 09:06:06;;;;;;;5.72;0.90;;;22.00;49.60;;;;;;5089504;28;20063;-45
2022/05/30 09:08:46;;;;;;;4.05;0.70;;;21.80;48.40;;;;;;5101619;28;20070;-53
2022/05/30 09:11:52;;;;;;;3.97;1.08;;;21.60;46.40;;;;;;5097787;28;20027;-54
2022/05/30 09:14:42;;;;;;;4.00;0.93;;;20.90;46.50;;;;;;5092249;28;20473;-49
2022/05/30 09:17:13;;;;;;;3.92;1.08;;;20.20;47.50;;;;;;5100383;28;20069;-52
2022/05/30 09:19:39;;;;;;;2.80;0.85;;;19.60;51.10;;;;;;5097131;28;20421;-54
2022/05/30 09:22:09;;;;;;;10.95;1.17;;;19.20;49.10;;;;;;5096384;28;20089;-54
2022/05/30 09:24:35;;;;;;;2.97;0.90;;;18.80;51.00;;;;;;5093671;28;20024;-55
2022/05/30 09:27:03;;;;;;;4.70;0.98;;;18.50;54.40;;;;;;5101257;28;20069;-57
2022/05/30 09:29:40;;;;;;;10.05;1.70;;;18.10;52.00;;;;;;5104392;28;20055;-57
2022/05/30 09:32:26;;;;;;;2.72;0.82;;;18.10;54.40;;;;;;5109248;28;20046;-58
2022/05/30 09:34:53;;;;;;;4.28;0.90;;;17.80;54.40;;;;;;5096898;28;20541;-55
2022/05/30 09:37:29;;;;;;;2.42;0.88;;;17.80;54.80;;;;;;5107107;28;20425;-61
2022/05/30 09:39:55;;;;;;;21.75;2.47;;;17.90;53.00;;;;;;5096957;28;20073;-59
2022/05/30 09:42:23;;;;;;;9.05;1.25;;;17.90;57.30;;;;;;5089492;28;20016;-50
2022/05/30 09:44:52;;;;;;;3.30;0.95;;;17.80;53.40;;;;;;5089424;28;20035;-45
2022/05/30 09:47:19;;;;;;;5.95;0.80;;;17.50;56.50;;;;;;5094532;28;20468;-53
2022/05/30 09:49:48;;;;;;;4.38;0.90;;;17.20;58.00;;;;;;5097523;28;20030;-63
2022/05/30 09:52:29;;;;;;;4.57;0.80;;;17.00;59.00;;;;;;5098201;28;20058;-52
2022/05/30 09:54:55;;;;;;;3.85;0.80;;;16.90;59.00;;;;;;5101951;28;20047;-54
2022/05/30 09:57:35;;;;;;;9.15;1.30;;;16.40;61.30;;;;;;5098603;28;20031;-50
2022/05/30 10:00:12;;;;;;;3.97;0.98;;;16.60;60.40;;;;;;5110218;28;20032;-50
2022/05/30 10:02:38;;;;;;;8.00;1.33;;;16.40;59.00;;;;;;5095732;28;20034;-55
2022/05/30 10:05:22;;;;;;;5.32;0.90;;;16.30;58.00;;;;;;5109930;28;20407;-52
2022/05/30 10:08:15;;;;;;;4.65;0.90;;;16.30;63.10;;;;;;5104496;28;20020;-55
2022/05/30 10:10:48;;;;;;;6.93;1.10;;;16.20;61.70;;;;;;5096358;28;20054;-54
2022/05/30 10:13:20;;;;;;;2.80;0.98;;;16.20;62.20;;;;;;5114093;28;20031;-59
2022/05/30 10:15:56;;;;;;;3.75;1.17;;;16.30;65.40;;;;;;5113823;28;20027;-53
2022/05/30 10:18:33;;;;;;;1.73;0.80;;;16.50;63.90;;;;;;5098689;28;20118;-60
2022/05/30 10:21:13;;;;;;;3.28;1.00;;;16.50;61.10;;;;;;5094161;28;20023;-54
2022/05/30 10:30:09;;;;;;;4.13;1.10;;;16.20;60.90;;;;;;5098015;28;20058;-52
2022/05/30 10:32:47;;;;;;;3.05;0.90;;;16.00;61.90;;;;;;5092168;28;20540;-49
2022/05/30 10:35:37;;;;;;;4.13;0.88;;;15.90;66.00;;;;;;5095662;28;20119;-53
2022/05/30 10:38:21;;;;;;;3.05;0.93;;;16.00;62.50;;;;;;5099560;28;20054;-61
2022/05/30 10:41:02;;;;;;;3.75;0.82;;;15.80;62.20;;;;;;5091791;28;20027;-57
2022/05/30 10:43:41;;;;;;;4.20;0.95;;;15.70;64.00;;;;;;5098379;28;20569;-62
2022/05/30 10:46:12;;;;;;;4.82;0.95;;;15.60;62.70;;;;;;5091996;28;20052;-60
2022/05/30 10:48:40;;;;;;;1.35;0.70;;;15.50;63.80;;;;;;5094998;28;20468;-58
2022/05/30 10:51:27;;;;;;;14.13;7.07;;;15.50;65.50;;;;;;5097465;28;20036;-61
2022/05/30 10:53:58;;;;;;;13.32;6.72;;;15.60;67.70;;;;;;5092764;28;20320;-56
2022/05/30 10:56:28;;;;;;;8.93;5.25;;;15.70;66.50;;;;;;5099839;28;20020;-56
2022/05/30 10:59:05;;;;;;;3.95;2.30;;;15.80;68.00;;;;;;5100053;28;20073;-56
2022/05/30 11:01:37;;;;;;;4.50;1.70;;;15.70;66.20;;;;;;5094606;28;20028;-59
2022/05/30 11:04:26;;;;;;;5.88;4.03;;;15.70;64.80;;;;;;5097958;28;20106;-57
2022/05/30 11:06:57;;;;;;;3.25;1.15;;;15.60;65.70;;;;;;5109850;28;20032;-54
2022/05/30 11:09:47;;;;;;;7.68;1.60;;;15.60;67.80;;;;;;5111742;28;20036;-49
2022/05/30 11:12:12;;;;;;;;;;;15.60;65.00;;;;;;5113013;28;20036;-48
2022/05/30 11:15:16;;;;;;;5.80;1.23;;;15.60;63.80;;;;;;5106393;28;19923;-49
2022/05/30 11:17:51;;;;;;;4.25;1.40;;;15.60;67.20;;;;;;5029537;28;20074;-45
2022/05/30 11:20:23;;;;;;;7.20;1.50;;;15.70;65.10;;;;;;5083679;28;20052;-48
2022/05/30 11:22:52;;;;;;;2.63;0.93;;;16.00;66.00;;;;;;5091620;28;20491;-44
2022/05/30 11:25:32;;;;;;;3.13;1.43;;;16.40;63.20;;;;;;5093595;28;20035;-60
2022/05/30 11:28:28;;;;;;;4.45;1.60;;;16.90;60.60;;;;;;5095885;27;20077;-59
2022/05/30 11:31:19;;;;;;;6.80;1.30;;;17.30;62.30;;;;;;5104301;28;20046;-48
2022/05/30 11:33:48;;;;;;;15.63;10.05;;;19.10;61.80;;;;;;5098683;28;20483;-56
2022/05/30 11:36:38;;;;;;;7.30;1.20;;;18.60;60.40;;;;;;5098281;28;20165;-52
2022/05/30 11:39:34;;;;;;;4.07;1.10;;;19.20;56.30;;;;;;5100063;28;20070;-57
2022/05/30 11:42:28;;;;;;;5.35;1.20;;;19.20;53.40;;;;;;5099961;28;20353;-54
2022/05/30 11:45:36;;;;;;;4.43;1.20;;;19.20;54.70;;;;;;5079623;28;20063;-61
2022/05/30 11:48:07;;;;;;;5.72;1.17;;;19.00;58.10;;;;;;5101283;28;20023;-55
2022/05/30 11:50:35;;;;;;;2.70;1.00;;;17.50;54.90;;;;;;5096261;28;20140;-44
2022/05/30 11:53:39;;;;;;;2.85;0.90;;;18.90;55.10;;;;;;5095742;28;20405;-53
2022/05/30 11:56:36;;;;;;;5.80;0.75;;;18.80;56.80;;;;;;5091272;28;20107;-41
2022/05/30 11:59:08;;;;;;;4.03;0.98;;;18.70;55.10;;;;;;5072840;28;20400;-46
2022/05/30 12:01:36;;;;;;;5.50;1.15;;;17.60;55.00;;;;;;5095518;28;20440;-41
2022/05/30 12:04:11;;;;;;;5.53;1.02;;;18.40;58.90;;;;;;5091893;28;20081;-44
2022/05/30 12:06:58;;;;;;;4.53;1.00;;;17.90;61.10;;;;;;5094417;28;20080;-49
2022/05/30 12:09:52;;;;;;;5.03;1.10;;;17.90;57.50;;;;;;5090779;28;20024;-46
2022/05/30 12:12:39;;;;;;;3.30;1.13;;;17.70;56.90;;;;;;5089430;28;20039;-43
2022/05/30 12:15:33;;;;;;;7.03;1.10;;;17.60;58.80;;;;;;5097926;28;20043;-46
2022/05/30 12:24:19;;;;;;;3.83;1.02;;;16.30;58.20;;;;;;5100882;28;20093;-58
2022/05/30 12:26:57;;;;;;;3.63;0.90;;;16.70;59.60;;;;;;5100193;28;20063;-47
2022/05/30 12:29:38;;;;;;;3.38;0.90;;;17.10;60.40;;;;;;5102583;28;20087;-57
2022/05/30 12:32:12;;;;;;;4.15;0.93;;;16.70;60.70;;;;;;5098468;28;20028;-52
2022/05/30 12:35:10;;;;;;;3.85;0.95;;;18.00;61.20;;;;;;5100662;28;20043;-58
2022/05/30 12:37:44;;;;;;;3.83;1.25;;;15.00;62.60;;;;;;5098355;28;20341;-57
2022/05/30 12:40:20;;;;;;;3.63;0.90;;;15.00;62.90;;;;;;5103211;28;20107;-60
2022/05/30 12:42:56;;;;;;;2.45;0.90;;;18.20;61.30;;;;;;5090456;28;20027;-60
2022/05/30 12:45:37;;;;;;;2.70;0.85;;;15.80;64.10;;;;;;5089909;28;20031;-41
2022/05/30 12:48:40;;;;;;;4.30;1.20;;;17.90;61.30;;;;;;5092707;28;20053;-45
2022/05/30 12:51:12;;;;;;;3.83;1.05;;;18.90;56.90;;;;;;5095540;28;20035;-58
2022/05/30 12:53:58;;;;;;;2.95;1.00;;;17.40;56.80;;;;;;5091769;28;20040;-55
2022/05/30 12:56:43;;;;;;;3.00;1.00;;;17.40;57.70;;;;;;5090948;28;20112;-51
2022/05/30 12:59:17;;;;;;;5.70;1.15;;;17.60;61.20;;;;;;5094168;28;20024;-54
2022/05/30 13:01:42;;;;;;;2.78;1.00;;;17.60;59.40;;;;;;5093457;28;20019;-54
2022/05/30 13:04:26;;;;;;;4.82;0.98;;;17.50;57.90;;;;;;5102756;28;20024;-61
2022/05/30 13:06:58;;;;;;;5.60;1.10;;;17.40;59.60;;;;;;5099740;28;20489;-49
2022/05/30 13:09:33;;;;;;;4.07;1.13;;;17.40;59.20;;;;;;5099230;28;20031;-52
2022/05/30 13:12:11;;;;;;;3.17;1.00;;;17.70;61.60;;;;;;5101905;28;20020;-57
2022/05/30 13:14:38;;;;;;;2.22;1.08;;;17.80;56.90;;;;;;5101412;28;20039;-56
2022/05/30 13:17:30;;;;;;;2.10;1.00;;;18.00;59.80;;;;;;5100790;28;20050;-58
2022/05/30 13:19:59;;;;;;;3.08;1.00;;;18.30;62.70;;;;;;5102998;28;20398;-53
2022/05/30 13:22:32;;;;;;;3.92;0.93;;;18.30;58.30;;;;;;5092919;28;20162;-55
2022/05/30 13:24:59;;;;;;;3.85;1.02;;;18.00;54.50;;;;;;5102465;28;20016;-55
2022/05/30 13:27:29;;;;;;;5.10;0.90;;;17.60;58.60;;;;;;5101983;28;20035;-53
2022/05/30 13:30:00;;;;;;;2.42;0.80;;;17.30;58.50;;;;;;5099074;28;20008;-57
2022/05/30 13:32:28;;;;;;;5.68;1.30;;;17.10;59.10;;;;;;5100077;28;21279;-58
2022/05/30 13:34:58;;;;;;;6.22;1.38;;;17.10;60.70;;;;;;5100221;28;20073;-56
2022/05/30 13:37:28;;;;;;;5.22;1.10;;;16.80;60.60;;;;;;5096878;28;20024;-57
2022/05/30 13:39:59;;;;;;;4.38;1.35;;;16.80;60.40;;;;;;5078293;28;20038;-47